createdAt,value
2017-12-13T00:00:19.353Z,0
2017-12-13T00:01:29.327Z,0
2017-12-13T00:02:39.309Z,0
2017-12-13T00:03:49.013Z,0
2017-12-13T00:04:58.720Z,0
2017-12-13T00:06:08.700Z,0
2017-12-13T00:07:18.675Z,0
2017-12-13T00:08:28.643Z,0
2017-12-13T00:09:38.611Z,0
2017-12-13T00:10:48.582Z,0
2017-12-13T00:11:58.568Z,0
2017-12-13T00:13:08.538Z,0
2017-12-13T00:14:18.514Z,0
2017-12-13T00:15:28.229Z,0
2017-12-13T00:16:38.211Z,0
2017-12-13T00:17:47.938Z,0
2017-12-13T00:18:57.910Z,0
2017-12-13T00:20:07.353Z,0
2017-12-13T00:21:17.323Z,0
2017-12-13T00:22:27.293Z,0
2017-12-13T00:23:37.281Z,0
2017-12-13T00:24:47.255Z,0
2017-12-13T00:25:57.229Z,0
2017-12-13T00:27:07.196Z,0
2017-12-13T00:28:17.169Z,0
2017-12-13T00:29:27.139Z,0
2017-12-13T00:30:37.163Z,0
2017-12-13T00:31:47.142Z,0
2017-12-13T00:32:57.109Z,0
2017-12-13T00:34:06.816Z,0
2017-12-13T00:35:16.532Z,0
2017-12-13T00:36:26.501Z,0
2017-12-13T00:37:36.207Z,0
2017-12-13T00:38:46.178Z,0
2017-12-13T00:39:56.157Z,0
2017-12-13T00:41:05.612Z,0
2017-12-13T00:42:15.601Z,0
2017-12-13T00:43:25.307Z,0
2017-12-13T00:44:35.015Z,0
2017-12-13T00:45:44.990Z,0
2017-12-13T00:46:54.967Z,0
2017-12-13T00:48:04.936Z,0
2017-12-13T00:49:14.939Z,0
2017-12-13T00:50:24.917Z,0
2017-12-13T00:51:34.620Z,0
2017-12-13T00:52:44.588Z,0
2017-12-13T00:53:54.294Z,0
2017-12-13T00:55:04.264Z,0
2017-12-13T00:56:13.978Z,0
2017-12-13T00:57:23.681Z,0
2017-12-13T00:58:33.651Z,0
2017-12-13T00:59:43.622Z,0
2017-12-13T01:00:53.597Z,0
2017-12-13T01:02:03.571Z,0
2017-12-13T01:03:13.542Z,0
2017-12-13T01:04:23.562Z,0
2017-12-13T01:05:33.535Z,0
2017-12-13T01:06:43.242Z,0
2017-12-13T01:07:53.209Z,0
2017-12-13T01:09:03.185Z,0
2017-12-13T01:10:12.892Z,0
2017-12-13T01:11:22.922Z,0
2017-12-13T01:12:32.894Z,0
2017-12-13T01:13:42.862Z,0
2017-12-13T01:14:52.567Z,0
2017-12-13T01:16:02.536Z,0
2017-12-13T01:17:12.510Z,0
2017-12-13T01:18:22.481Z,0
2017-12-13T01:19:32.462Z,0
2017-12-13T01:20:42.451Z,0
2017-12-13T01:21:52.432Z,0
2017-12-13T01:23:02.406Z,0
2017-12-13T01:24:12.384Z,0
2017-12-13T01:25:22.358Z,0
2017-12-13T01:26:32.332Z,0
2017-12-13T01:27:42.307Z,0
2017-12-13T01:28:52.280Z,0
2017-12-13T01:30:02.251Z,0
2017-12-13T01:31:12.235Z,0
2017-12-13T01:32:22.205Z,0
2017-12-13T01:33:32.179Z,0
2017-12-13T01:34:42.148Z,0
2017-12-13T01:35:52.123Z,0
2017-12-13T01:37:02.092Z,0
2017-12-13T01:38:11.528Z,0
2017-12-13T01:39:21.498Z,0
2017-12-13T01:40:31.465Z,0
2017-12-13T01:41:41.469Z,0
2017-12-13T01:42:51.176Z,0
2017-12-13T01:44:01.152Z,0
2017-12-13T01:45:11.122Z,0
2017-12-13T01:46:21.155Z,0
2017-12-13T01:47:31.135Z,0
2017-12-13T01:48:41.259Z,0
2017-12-13T01:49:51.231Z,0
2017-12-13T01:51:01.208Z,0
2017-12-13T01:52:11.180Z,0
2017-12-13T01:53:21.158Z,0
2017-12-13T01:54:30.869Z,0
2017-12-13T01:55:40.837Z,0
2017-12-13T01:56:50.810Z,0
2017-12-13T01:58:00.779Z,0
2017-12-13T01:59:10.748Z,0
2017-12-13T02:00:20.726Z,0
2017-12-13T02:01:30.696Z,0
2017-12-13T02:02:40.666Z,0
2017-12-13T02:03:50.637Z,0
2017-12-13T02:05:00.607Z,0
2017-12-13T02:06:10.585Z,0
2017-12-13T02:07:20.295Z,0
2017-12-13T02:08:30.269Z,0
2017-12-13T02:09:40.242Z,0
2017-12-13T02:10:50.210Z,0
2017-12-13T02:11:59.918Z,0
2017-12-13T02:13:09.892Z,0
2017-12-13T02:14:19.869Z,0
2017-12-13T02:15:29.844Z,0
2017-12-13T02:16:39.547Z,0
2017-12-13T02:17:49.256Z,0
2017-12-13T02:18:58.962Z,0
2017-12-13T02:20:08.667Z,0
2017-12-13T02:21:18.376Z,0
2017-12-13T02:22:27.825Z,0
2017-12-13T02:23:37.796Z,0
2017-12-13T02:24:47.771Z,0
2017-12-13T02:25:57.795Z,0
2017-12-13T02:27:07.766Z,0
2017-12-13T02:28:17.747Z,0
2017-12-13T02:29:27.450Z,0
2017-12-13T02:30:37.424Z,0
2017-12-13T02:31:46.908Z,0
2017-12-13T02:32:56.623Z,0
2017-12-13T02:34:06.600Z,0
2017-12-13T02:35:16.582Z,0
2017-12-13T02:36:26.556Z,0
2017-12-13T02:37:36.273Z,0
2017-12-13T02:38:46.249Z,0
2017-12-13T02:39:55.958Z,0
2017-12-13T02:41:05.929Z,0
2017-12-13T02:42:15.634Z,0
2017-12-13T02:43:25.616Z,0
2017-12-13T02:44:35.068Z,0
2017-12-13T02:45:45.048Z,0
2017-12-13T02:46:55.030Z,0
2017-12-13T02:48:05.043Z,0
2017-12-13T02:49:15.029Z,0
2017-12-13T02:50:25.011Z,0
2017-12-13T02:51:34.997Z,0
2017-12-13T02:52:44.968Z,0
2017-12-13T02:53:54.949Z,0
2017-12-13T02:55:04.925Z,0
2017-12-13T02:56:14.898Z,0
2017-12-13T02:57:24.611Z,0
2017-12-13T02:58:34.659Z,0
2017-12-13T02:59:44.629Z,0
2017-12-13T03:00:54.603Z,0
2017-12-13T03:02:04.585Z,0
2017-12-13T03:03:14.559Z,0
2017-12-13T03:04:24.532Z,0
2017-12-13T03:05:34.503Z,0
2017-12-13T03:06:44.541Z,0
2017-12-13T03:07:54.520Z,0
2017-12-13T03:09:04.488Z,0
2017-12-13T03:10:14.462Z,0
2017-12-13T03:11:24.445Z,0
2017-12-13T03:12:34.417Z,0
2017-12-13T03:13:44.441Z,0
2017-12-13T03:14:54.415Z,0
2017-12-13T03:16:04.487Z,0
2017-12-13T03:17:14.464Z,0
2017-12-13T03:18:24.175Z,0
2017-12-13T03:19:34.147Z,0
2017-12-13T03:20:44.116Z,0
2017-12-13T03:21:54.085Z,0
2017-12-13T03:23:04.055Z,0
2017-12-13T03:24:13.496Z,0
2017-12-13T03:25:23.537Z,0
2017-12-13T03:26:33.506Z,0
2017-12-13T03:27:43.472Z,0
2017-12-13T03:28:53.441Z,0
2017-12-13T03:30:03.424Z,0
2017-12-13T03:31:13.424Z,0
2017-12-13T03:32:23.401Z,0
2017-12-13T03:33:33.371Z,0
2017-12-13T03:34:43.358Z,0
2017-12-13T03:35:53.330Z,0
2017-12-13T03:37:03.306Z,0
2017-12-13T03:38:13.281Z,0
2017-12-13T03:39:22.987Z,0
2017-12-13T03:40:32.958Z,0
2017-12-13T03:41:42.930Z,0
2017-12-13T03:42:52.634Z,0
2017-12-13T03:44:02.617Z,0
2017-12-13T03:45:12.590Z,0
2017-12-13T03:46:22.575Z,0
2017-12-13T03:47:32.550Z,0
2017-12-13T03:48:42.521Z,0
2017-12-13T03:49:52.498Z,0
2017-12-13T03:51:02.468Z,0
2017-12-13T03:52:12.180Z,0
2017-12-13T03:53:21.889Z,0
2017-12-13T03:54:31.861Z,0
2017-12-13T03:55:41.832Z,0
2017-12-13T03:56:51.538Z,0
2017-12-13T03:58:01.507Z,0
2017-12-13T03:59:11.215Z,0
2017-12-13T04:03:37.897Z,0
2017-12-13T04:04:47.337Z,0
2017-12-13T04:05:57.303Z,0
2017-12-13T04:07:07.014Z,0
2017-12-13T04:08:16.722Z,0
2017-12-13T04:09:26.694Z,0
2017-12-13T04:10:36.674Z,0
2017-12-13T04:11:46.382Z,0
2017-12-13T04:12:56.088Z,0
2017-12-13T04:14:06.066Z,0
2017-12-13T04:15:19.273Z,0
2017-12-13T04:16:28.985Z,0
2017-12-13T04:17:38.956Z,0
2017-12-13T04:18:48.927Z,0
2017-12-13T04:19:59.021Z,0
2017-12-13T04:21:08.728Z,0
2017-12-13T04:22:18.171Z,0
2017-12-13T04:23:27.876Z,0
2017-12-13T04:24:37.589Z,0
2017-12-13T04:25:47.562Z,0
2017-12-13T04:26:57.596Z,0
2017-12-13T04:28:07.305Z,0
2017-12-13T04:29:17.015Z,0
2017-12-13T04:30:27.000Z,0
2017-12-13T04:31:36.443Z,0
2017-12-13T04:32:45.880Z,0
2017-12-13T04:33:55.848Z,0
2017-12-13T04:35:05.560Z,0
2017-12-13T04:36:15.278Z,0
2017-12-13T04:37:25.255Z,0
2017-12-13T04:38:35.237Z,0
2017-12-13T04:39:45.207Z,0
2017-12-13T04:40:55.191Z,0
2017-12-13T04:42:05.180Z,0
2017-12-13T04:43:15.159Z,0
2017-12-13T04:44:25.142Z,0
2017-12-13T04:45:35.109Z,0
2017-12-13T04:46:44.556Z,0
2017-12-13T04:47:54.259Z,0
2017-12-13T04:49:04.229Z,0
2017-12-13T04:50:14.208Z,0
2017-12-13T04:51:24.182Z,0
2017-12-13T04:52:33.894Z,0
2017-12-13T04:53:43.879Z,0
2017-12-13T04:54:53.858Z,0
2017-12-13T04:56:03.569Z,0
2017-12-13T04:57:13.542Z,0
2017-12-13T04:58:23.513Z,0
2017-12-13T04:59:33.493Z,0
2017-12-13T05:00:44.461Z,0
2017-12-13T05:01:54.434Z,0
2017-12-13T05:03:04.416Z,0
2017-12-13T05:04:14.457Z,0
2017-12-13T05:05:24.431Z,0
2017-12-13T05:06:34.138Z,0
2017-12-13T05:07:44.113Z,0
2017-12-13T05:08:54.085Z,0
2017-12-13T05:10:04.059Z,0
2017-12-13T05:11:13.775Z,0
2017-12-13T05:12:23.755Z,0
2017-12-13T05:13:35.727Z,0
2017-12-13T05:14:45.705Z,0
2017-12-13T05:15:55.684Z,0
2017-12-13T05:17:05.652Z,0
2017-12-13T05:18:15.625Z,0
2017-12-13T05:19:25.612Z,0
2017-12-13T05:20:35.636Z,0
2017-12-13T05:21:45.613Z,0
2017-12-13T05:22:55.598Z,0
2017-12-13T05:24:05.573Z,0
2017-12-13T05:25:15.552Z,0
2017-12-13T05:26:25.542Z,0
2017-12-13T05:27:35.522Z,0
2017-12-13T05:28:45.490Z,0
2017-12-13T05:29:55.201Z,0
2017-12-13T05:31:04.644Z,0
2017-12-13T05:32:14.087Z,0
2017-12-13T05:33:24.063Z,0
2017-12-13T05:34:34.038Z,0
2017-12-13T05:35:43.747Z,0
2017-12-13T05:36:53.720Z,0
2017-12-13T05:38:02.896Z,0
2017-12-13T05:39:12.867Z,0
2017-12-13T05:40:22.839Z,0
2017-12-13T05:41:32.551Z,0
2017-12-13T05:42:42.533Z,0
2017-12-13T05:43:52.500Z,0
2017-12-13T05:45:02.473Z,0
2017-12-13T05:46:12.445Z,0
2017-12-13T05:47:22.418Z,0
2017-12-13T05:48:32.399Z,0
2017-12-13T05:49:42.378Z,0
2017-12-13T05:50:52.086Z,0
2017-12-13T05:52:02.058Z,0
2017-12-13T05:53:11.762Z,0
2017-12-13T05:54:21.744Z,0
2017-12-13T05:55:31.717Z,0
2017-12-13T05:56:41.425Z,0
2017-12-13T05:57:51.395Z,0
2017-12-13T05:59:01.366Z,0
2017-12-13T06:00:11.339Z,0
2017-12-13T06:01:21.313Z,0
2017-12-13T06:02:31.017Z,0
2017-12-13T06:03:40.987Z,0
2017-12-13T06:04:50.963Z,0
2017-12-13T06:06:00.931Z,0
2017-12-13T06:07:10.634Z,0
2017-12-13T06:08:20.610Z,0
2017-12-13T06:09:30.317Z,0
2017-12-13T06:10:40.289Z,0
2017-12-13T06:11:50.262Z,0
2017-12-13T06:13:00.232Z,0
2017-12-13T06:14:09.949Z,0
2017-12-13T06:15:19.661Z,0
2017-12-13T06:16:29.367Z,0
2017-12-13T06:17:39.078Z,0
2017-12-13T06:18:49.053Z,0
2017-12-13T06:19:59.082Z,0
2017-12-13T06:21:08.533Z,0
2017-12-13T06:22:18.509Z,0
2017-12-13T06:23:28.222Z,0
2017-12-13T06:24:37.931Z,0
2017-12-13T06:25:47.918Z,0
2017-12-13T06:26:57.902Z,0
2017-12-13T06:28:07.876Z,0
2017-12-13T06:29:17.846Z,0
2017-12-13T06:30:27.820Z,0
2017-12-13T06:31:37.796Z,0
2017-12-13T06:32:47.768Z,0
2017-12-13T06:33:57.734Z,0
2017-12-13T06:35:07.714Z,0
2017-12-13T06:36:17.438Z,0
2017-12-13T06:37:27.419Z,0
2017-12-13T06:38:37.400Z,0
2017-12-13T06:39:47.114Z,0
2017-12-13T06:40:57.083Z,0
2017-12-13T06:42:07.059Z,0
2017-12-13T06:43:17.039Z,0
2017-12-13T06:44:27.014Z,0
2017-12-13T06:45:36.994Z,0
2017-12-13T06:46:46.972Z,0
2017-12-13T06:47:56.945Z,0
2017-12-13T06:49:06.390Z,0
2017-12-13T06:50:16.101Z,0
2017-12-13T06:51:25.550Z,0
2017-12-13T06:52:35.306Z,0
2017-12-13T06:53:45.283Z,0
2017-12-13T06:54:55.253Z,0
2017-12-13T06:56:04.980Z,0
2017-12-13T06:57:14.979Z,0
2017-12-13T06:58:24.958Z,0
2017-12-13T06:59:34.929Z,0
2017-12-13T07:00:44.902Z,0
2017-12-13T07:01:54.609Z,0
2017-12-13T07:03:04.593Z,0
2017-12-13T07:04:14.299Z,0
2017-12-13T07:05:23.748Z,0
2017-12-13T07:06:33.723Z,0
2017-12-13T07:07:43.437Z,0
2017-12-13T07:08:53.409Z,0
2017-12-13T07:10:03.117Z,0
2017-12-13T07:11:12.834Z,0
2017-12-13T07:12:22.812Z,0
2017-12-13T07:13:32.786Z,0
2017-12-13T07:14:42.760Z,0
2017-12-13T07:15:52.469Z,0
2017-12-13T07:17:02.182Z,0
2017-12-13T07:18:11.890Z,0
2017-12-13T07:19:21.599Z,0
2017-12-13T07:20:31.573Z,0
2017-12-13T07:21:41.553Z,0
2017-12-13T07:22:51.528Z,0
2017-12-13T07:24:01.505Z,0
2017-12-13T07:25:11.485Z,0
2017-12-13T07:26:21.463Z,0
2017-12-13T07:27:31.439Z,0
2017-12-13T07:28:41.420Z,0
2017-12-13T07:29:51.393Z,0
2017-12-13T07:31:01.368Z,0
2017-12-13T07:32:11.351Z,0
2017-12-13T07:33:21.062Z,0
2017-12-13T07:34:31.049Z,0
2017-12-13T07:35:41.029Z,0
2017-12-13T07:36:51.002Z,0
2017-12-13T07:38:00.983Z,0
2017-12-13T07:39:10.953Z,0
2017-12-13T07:40:20.930Z,0
2017-12-13T07:41:30.905Z,0
2017-12-13T07:42:40.619Z,0
2017-12-13T07:43:50.598Z,0
2017-12-13T07:45:00.310Z,0
2017-12-13T07:46:10.026Z,0
2017-12-13T07:47:19.744Z,0
2017-12-13T07:48:29.202Z,0
2017-12-13T07:49:39.175Z,0
2017-12-13T07:50:49.149Z,0
2017-12-13T07:51:59.126Z,0
2017-12-13T07:53:09.097Z,0
2017-12-13T07:54:19.072Z,0
2017-12-13T07:55:29.057Z,0
2017-12-13T07:56:38.772Z,0
2017-12-13T07:57:48.745Z,0
2017-12-13T07:58:58.450Z,0
2017-12-13T08:00:08.162Z,0
2017-12-13T08:01:17.883Z,0
2017-12-13T08:02:27.595Z,0
2017-12-13T08:03:37.313Z,5
2017-12-13T08:04:47.287Z,5
2017-12-13T08:05:57.266Z,5
2017-12-13T08:07:06.978Z,5
2017-12-13T08:08:16.952Z,5
2017-12-13T08:09:26.932Z,5
2017-12-13T08:10:36.656Z,5
2017-12-13T08:11:46.631Z,5
2017-12-13T08:12:56.340Z,5
2017-12-13T08:14:06.053Z,5
2017-12-13T08:15:15.763Z,5
2017-12-13T08:16:25.471Z,5
2017-12-13T08:17:35.457Z,5
2017-12-13T08:18:45.438Z,5
2017-12-13T08:19:55.424Z,5
2017-12-13T08:21:05.400Z,5
2017-12-13T08:22:15.113Z,5
2017-12-13T08:23:24.568Z,5
2017-12-13T08:24:34.539Z,10
2017-12-13T08:25:44.297Z,10
2017-12-13T08:26:53.739Z,10
2017-12-13T08:28:03.487Z,10
2017-12-13T08:29:12.925Z,10
2017-12-13T08:30:22.635Z,10
2017-12-13T08:31:32.612Z,10
2017-12-13T08:32:42.594Z,10
2017-12-13T08:33:52.311Z,10
2017-12-13T08:35:02.295Z,15
2017-12-13T08:36:12.004Z,15
2017-12-13T08:37:21.993Z,15
2017-12-13T08:38:31.965Z,15
2017-12-13T08:39:41.682Z,15
2017-12-13T08:40:51.661Z,15
2017-12-13T08:42:01.376Z,15
2017-12-13T08:43:11.352Z,15
2017-12-13T08:44:21.339Z,15
2017-12-13T08:45:31.309Z,20
2017-12-13T08:46:41.024Z,20
2017-12-13T08:47:50.999Z,20
2017-12-13T08:49:00.973Z,20
2017-12-13T08:50:10.420Z,20
2017-12-13T08:51:20.402Z,20
2017-12-13T08:52:30.385Z,20
2017-12-13T08:53:40.365Z,25
2017-12-13T08:54:50.072Z,25
2017-12-13T08:56:00.048Z,25
2017-12-13T08:57:09.756Z,25
2017-12-13T08:58:19.726Z,25
2017-12-13T08:59:29.701Z,30
2017-12-13T09:00:39.683Z,30
2017-12-13T09:01:49.664Z,30
2017-12-13T09:02:59.374Z,30
2017-12-13T09:04:08.842Z,30
2017-12-13T09:05:18.816Z,30
2017-12-13T09:06:28.526Z,30
2017-12-13T09:07:38.497Z,35
2017-12-13T09:08:48.478Z,35
2017-12-13T09:09:58.191Z,35
2017-12-13T09:11:07.896Z,35
2017-12-13T09:12:17.606Z,35
2017-12-13T09:13:27.583Z,35
2017-12-13T09:14:37.294Z,35
2017-12-13T09:15:47.269Z,35
2017-12-13T09:16:56.711Z,35
2017-12-13T09:18:06.684Z,35
2017-12-13T09:19:16.396Z,35
2017-12-13T09:20:26.375Z,35
2017-12-13T09:21:36.350Z,40
2017-12-13T09:22:46.063Z,40
2017-12-13T09:23:55.771Z,40
2017-12-13T09:25:05.754Z,40
2017-12-13T09:26:15.462Z,40
2017-12-13T09:27:25.435Z,45
2017-12-13T09:28:35.413Z,45
2017-12-13T09:29:45.120Z,45
2017-12-13T09:30:55.099Z,45
2017-12-13T09:32:05.072Z,50
2017-12-13T09:33:15.046Z,50
2017-12-13T09:34:25.019Z,50
2017-12-13T09:35:35.032Z,55
2017-12-13T09:36:45.016Z,55
2017-12-13T09:37:54.996Z,55
2017-12-13T09:39:04.706Z,55
2017-12-13T09:40:14.689Z,55
2017-12-13T09:41:24.664Z,55
2017-12-13T09:42:34.639Z,55
2017-12-13T09:43:44.619Z,55
2017-12-13T09:44:54.599Z,60
2017-12-13T09:46:04.579Z,60
2017-12-13T09:47:15.020Z,60
2017-12-13T09:48:24.732Z,60
2017-12-13T09:49:34.448Z,60
2017-12-13T09:50:44.493Z,55
2017-12-13T09:51:54.472Z,55
2017-12-13T09:53:04.449Z,55
2017-12-13T09:54:14.430Z,55
2017-12-13T09:55:24.153Z,55
2017-12-13T09:56:34.135Z,55
2017-12-13T09:57:43.894Z,55
2017-12-13T09:58:53.870Z,60
2017-12-13T10:00:03.850Z,60
2017-12-13T10:01:13.831Z,60
2017-12-13T10:02:23.805Z,60
2017-12-13T10:03:33.882Z,65
2017-12-13T10:04:43.591Z,65
2017-12-13T10:05:53.564Z,65
2017-12-13T10:07:03.543Z,65
2017-12-13T10:08:13.517Z,65
2017-12-13T10:09:23.491Z,65
2017-12-13T10:10:33.198Z,65
2017-12-13T10:11:43.172Z,70
2017-12-13T10:12:53.167Z,70
2017-12-13T10:14:03.146Z,70
2017-12-13T10:15:12.934Z,70
2017-12-13T10:16:22.915Z,70
2017-12-13T10:17:32.677Z,70
2017-12-13T10:18:41.871Z,70
2017-12-13T10:19:51.582Z,70
2017-12-13T10:21:01.560Z,70
2017-12-13T10:22:11.281Z,70
2017-12-13T10:23:21.259Z,70
2017-12-13T10:24:30.974Z,70
2017-12-13T10:25:40.954Z,70
2017-12-13T10:26:50.940Z,70
2017-12-13T10:28:00.922Z,75
2017-12-13T10:29:10.904Z,75
2017-12-13T10:30:20.873Z,75
2017-12-13T10:31:30.851Z,75
2017-12-13T10:32:40.836Z,75
2017-12-13T10:33:50.810Z,75
2017-12-13T10:35:00.783Z,75
2017-12-13T10:36:10.755Z,75
2017-12-13T10:37:20.741Z,75
2017-12-13T10:38:30.456Z,80
2017-12-13T10:39:40.431Z,75
2017-12-13T10:40:50.402Z,75
2017-12-13T10:42:00.124Z,75
2017-12-13T10:43:09.834Z,75
2017-12-13T10:44:19.821Z,75
2017-12-13T10:45:29.537Z,75
2017-12-13T10:46:39.247Z,80
2017-12-13T10:47:49.241Z,80
2017-12-13T10:48:59.220Z,80
2017-12-13T10:50:09.193Z,80
2017-12-13T10:51:19.175Z,80
2017-12-13T10:52:28.880Z,80
2017-12-13T10:53:38.860Z,80
2017-12-13T10:54:48.837Z,85
2017-12-13T10:55:58.814Z,85
2017-12-13T10:57:10.525Z,85
2017-12-13T10:58:20.500Z,85
2017-12-13T10:59:30.212Z,85
2017-12-13T11:00:40.190Z,85
2017-12-13T11:01:49.911Z,85
2017-12-13T11:02:59.617Z,90
2017-12-13T11:04:09.327Z,90
2017-12-13T11:05:19.040Z,90
2017-12-13T11:06:29.015Z,85
2017-12-13T11:07:38.987Z,85
2017-12-13T11:08:48.961Z,85
2017-12-13T11:09:58.940Z,80
2017-12-13T11:11:08.913Z,80
2017-12-13T11:12:18.625Z,80
2017-12-13T11:13:28.343Z,80
2017-12-13T11:14:38.320Z,80
2017-12-13T11:15:48.296Z,80
2017-12-13T11:16:58.275Z,80
2017-12-13T11:18:08.252Z,85
2017-12-13T11:19:17.971Z,85
2017-12-13T11:20:27.962Z,85
2017-12-13T11:21:37.933Z,85
2017-12-13T11:22:47.639Z,90
2017-12-13T11:23:57.620Z,90
2017-12-13T11:25:07.601Z,90
2017-12-13T11:26:17.561Z,90
2017-12-13T11:27:27.532Z,90
2017-12-13T11:28:37.517Z,95
2017-12-13T11:29:47.497Z,95
2017-12-13T11:30:57.479Z,95
2017-12-13T11:32:07.457Z,95
2017-12-13T11:33:17.428Z,95
2017-12-13T11:34:27.138Z,90
2017-12-13T11:35:36.847Z,90
2017-12-13T11:36:46.292Z,85
2017-12-13T11:37:58.266Z,85
2017-12-13T11:39:08.268Z,85
2017-12-13T11:40:17.979Z,80
2017-12-13T11:41:27.966Z,80
2017-12-13T11:42:37.949Z,80
2017-12-13T11:43:47.673Z,80
2017-12-13T11:44:57.650Z,80
2017-12-13T11:46:08.178Z,80
2017-12-13T11:47:18.176Z,80
2017-12-13T11:48:28.152Z,75
2017-12-13T11:49:38.123Z,75
2017-12-13T11:50:48.096Z,75
2017-12-13T11:51:58.072Z,75
2017-12-13T11:53:08.045Z,70
2017-12-13T11:54:18.022Z,70
2017-12-13T11:55:28.146Z,70
2017-12-13T11:56:37.857Z,70
2017-12-13T11:57:47.840Z,70
2017-12-13T11:58:57.817Z,70
2017-12-13T12:00:07.531Z,70
2017-12-13T12:01:17.247Z,70
2017-12-13T12:02:27.252Z,75
2017-12-13T12:03:37.227Z,70
2017-12-13T12:04:47.205Z,75
2017-12-13T12:05:56.964Z,75
2017-12-13T12:07:06.937Z,75
2017-12-13T12:08:16.648Z,75
2017-12-13T12:09:26.618Z,70
2017-12-13T12:10:36.326Z,70
2017-12-13T12:11:46.312Z,70
2017-12-13T12:12:56.284Z,65
2017-12-13T12:14:05.996Z,65
2017-12-13T12:15:15.977Z,65
2017-12-13T12:16:25.429Z,60
2017-12-13T12:17:35.400Z,60
2017-12-13T12:18:45.113Z,60
2017-12-13T12:19:55.094Z,55
2017-12-13T12:21:04.807Z,55
2017-12-13T12:22:14.803Z,55
2017-12-13T12:23:24.786Z,55
2017-12-13T12:24:34.764Z,50
2017-12-13T12:25:44.736Z,50
2017-12-13T12:26:54.719Z,50
2017-12-13T12:28:04.697Z,45
2017-12-13T12:29:14.671Z,45
2017-12-13T12:30:24.381Z,40
2017-12-13T12:31:34.096Z,40
2017-12-13T12:32:44.078Z,40
2017-12-13T12:33:53.787Z,40
2017-12-13T12:35:03.761Z,40
2017-12-13T12:36:13.737Z,40
2017-12-13T12:37:23.715Z,40
2017-12-13T12:38:33.750Z,40
2017-12-13T12:39:43.724Z,40
2017-12-13T12:40:53.433Z,40
2017-12-13T12:42:03.413Z,45
2017-12-13T12:43:13.389Z,45
2017-12-13T12:44:23.364Z,45
2017-12-13T12:45:33.349Z,50
2017-12-13T12:46:43.333Z,50
2017-12-13T12:47:55.318Z,45
2017-12-13T12:49:05.292Z,50
2017-12-13T12:50:15.272Z,50
2017-12-13T12:51:25.245Z,50
2017-12-13T12:52:35.321Z,50
2017-12-13T12:53:44.764Z,45
2017-12-13T12:54:54.740Z,40
2017-12-13T12:56:04.232Z,40
2017-12-13T12:57:13.943Z,35
2017-12-13T12:58:23.971Z,30
2017-12-13T12:59:33.957Z,30
2017-12-13T13:00:44.188Z,30
2017-12-13T13:01:53.877Z,25
2017-12-13T13:03:04.137Z,25
2017-12-13T13:04:14.391Z,25
2017-12-13T13:05:24.362Z,25
2017-12-13T13:06:34.429Z,25
2017-12-13T13:07:44.900Z,25
2017-12-13T13:08:55.158Z,25
2017-12-13T13:10:05.136Z,25
2017-12-13T13:11:14.822Z,20
2017-12-13T13:12:25.076Z,20
2017-12-13T13:13:35.053Z,20
2017-12-13T13:14:45.235Z,20
2017-12-13T13:15:55.493Z,25
2017-12-13T13:17:05.753Z,25
2017-12-13T13:18:15.740Z,25
2017-12-13T13:19:26.008Z,25
2017-12-13T13:20:36.270Z,25
2017-12-13T13:21:45.968Z,25
2017-12-13T13:22:56.235Z,20
2017-12-13T13:24:06.521Z,20
2017-12-13T13:25:17.287Z,20
2017-12-13T13:26:27.262Z,20
2017-12-13T13:27:37.253Z,20
2017-12-13T13:28:47.228Z,15
2017-12-13T13:29:57.496Z,15
2017-12-13T13:31:08.468Z,15
2017-12-13T13:32:18.733Z,15
2017-12-13T13:33:29.200Z,15
2017-12-13T13:34:39.463Z,15
2017-12-13T13:35:49.443Z,10
2017-12-13T13:36:59.711Z,10
2017-12-13T13:38:09.982Z,10
2017-12-13T13:39:20.243Z,10
2017-12-13T13:40:30.509Z,10
2017-12-13T13:41:40.785Z,10
2017-12-13T13:42:51.051Z,10
2017-12-13T13:44:01.316Z,10
2017-12-13T13:45:11.679Z,10
2017-12-13T13:46:21.373Z,10
2017-12-13T13:47:31.624Z,10
2017-12-13T13:48:41.940Z,10
2017-12-13T13:49:52.191Z,10
2017-12-13T13:51:02.370Z,5
2017-12-13T13:52:12.349Z,5
2017-12-13T13:53:22.609Z,5
2017-12-13T13:54:32.860Z,5
2017-12-13T13:55:43.105Z,5
2017-12-13T13:56:53.360Z,5
2017-12-13T13:58:03.609Z,5
2017-12-13T13:59:13.861Z,5
2017-12-13T14:00:23.820Z,5
2017-12-13T14:01:33.782Z,5
2017-12-13T14:02:43.751Z,5
2017-12-13T14:03:54.149Z,5
2017-12-13T14:05:04.127Z,5
2017-12-13T14:06:14.374Z,5
2017-12-13T14:07:24.332Z,5
2017-12-13T14:08:34.597Z,0
2017-12-13T14:09:44.839Z,0
2017-12-13T14:10:54.808Z,0
2017-12-13T14:12:05.060Z,0
2017-12-13T14:13:15.314Z,0
2017-12-13T14:14:25.565Z,0
2017-12-13T14:15:35.528Z,0
2017-12-13T14:16:45.775Z,0
2017-12-13T14:17:55.740Z,0
2017-12-13T14:19:05.985Z,0
2017-12-13T14:20:16.237Z,0
2017-12-13T14:21:26.201Z,0
2017-12-13T14:22:36.445Z,0
2017-12-13T14:23:46.744Z,0
2017-12-13T14:24:56.987Z,0
2017-12-13T14:26:07.237Z,0
2017-12-13T14:27:17.649Z,0
2017-12-13T14:28:27.625Z,0
2017-12-13T14:29:37.887Z,0
2017-12-13T14:30:47.853Z,0
2017-12-13T14:31:58.162Z,0
2017-12-13T14:33:08.411Z,0
2017-12-13T14:34:18.668Z,0
2017-12-13T14:35:28.639Z,0
2017-12-13T14:36:38.612Z,0
2017-12-13T14:37:48.865Z,0
2017-12-13T14:38:58.875Z,0
2017-12-13T14:40:08.846Z,0
2017-12-13T14:41:19.102Z,0
2017-12-13T14:42:29.365Z,0
2017-12-13T14:43:39.334Z,0
2017-12-13T14:44:49.590Z,0
2017-12-13T14:45:59.845Z,0
2017-12-13T14:47:10.231Z,0
2017-12-13T14:48:20.250Z,0
2017-12-13T14:49:30.262Z,0
2017-12-13T14:50:40.606Z,0
2017-12-13T14:51:50.859Z,0
2017-12-13T14:53:01.110Z,0
2017-12-13T14:54:11.368Z,0
2017-12-13T14:55:21.624Z,0
2017-12-13T14:56:31.594Z,0
2017-12-13T14:57:41.559Z,0
2017-12-13T14:58:51.814Z,0
2017-12-13T15:00:01.790Z,0
2017-12-13T15:01:11.476Z,0
2017-12-13T15:02:21.760Z,0
2017-12-13T15:03:32.068Z,0
2017-12-13T15:04:42.368Z,0
2017-12-13T15:05:52.624Z,0
2017-12-13T15:07:02.879Z,0
2017-12-13T15:08:13.132Z,0
2017-12-13T15:09:23.391Z,0
2017-12-13T15:10:33.651Z,0
2017-12-13T15:11:43.999Z,0
2017-12-13T15:12:54.261Z,0
2017-12-13T15:14:04.525Z,0
2017-12-13T15:15:14.797Z,0
2017-12-13T15:16:25.100Z,0
2017-12-13T15:17:35.356Z,0
2017-12-13T15:18:45.616Z,0
2017-12-13T15:19:55.888Z,0
2017-12-13T15:21:06.227Z,0
2017-12-13T15:22:16.478Z,0
2017-12-13T15:23:26.453Z,0
2017-12-13T15:24:36.721Z,0
2017-12-13T15:25:46.979Z,0
2017-12-13T15:26:57.237Z,0
2017-12-13T15:28:07.501Z,0
2017-12-13T15:29:17.762Z,0
2017-12-13T15:30:28.084Z,0
2017-12-13T15:31:38.392Z,0
2017-12-13T15:32:48.793Z,0
2017-12-13T15:33:59.059Z,0
2017-12-13T15:35:09.130Z,0
2017-12-13T15:36:19.755Z,0
2017-12-13T15:37:30.025Z,0
2017-12-13T15:38:40.347Z,0
2017-12-13T15:39:50.903Z,0
2017-12-13T15:41:01.183Z,0
2017-12-13T15:42:11.366Z,0
2017-12-13T15:43:21.627Z,0
2017-12-13T15:44:31.904Z,0
2017-12-13T15:45:42.169Z,0
2017-12-13T15:46:52.445Z,0
2017-12-13T15:48:02.524Z,0
2017-12-13T15:49:12.917Z,0
2017-12-13T15:50:23.182Z,0
2017-12-13T15:51:33.445Z,0
2017-12-13T15:52:43.421Z,0
2017-12-13T15:53:53.692Z,0
2017-12-13T15:55:08.264Z,0
2017-12-13T15:56:18.523Z,0
2017-12-13T15:57:28.839Z,0
2017-12-13T15:58:39.327Z,0
2017-12-13T15:59:49.645Z,0
2017-12-13T16:00:59.907Z,0
2017-12-13T16:02:09.916Z,0
2017-12-13T16:03:20.245Z,0
2017-12-13T16:04:30.709Z,0
2017-12-13T16:05:41.024Z,0
2017-12-13T16:06:51.284Z,0
2017-12-13T16:08:01.795Z,0
2017-12-13T16:09:11.775Z,0
2017-12-13T16:10:21.753Z,0
2017-12-13T16:11:31.735Z,0
2017-12-13T16:12:42.248Z,0
2017-12-13T16:13:52.525Z,0
2017-12-13T16:15:02.978Z,0
2017-12-13T16:16:13.293Z,0
2017-12-13T16:17:23.566Z,0
2017-12-13T16:18:33.830Z,0
2017-12-13T16:19:44.300Z,0
2017-12-13T16:20:54.859Z,0
2017-12-13T16:22:05.121Z,0
2017-12-13T16:23:15.111Z,0
2017-12-13T16:24:25.394Z,0
2017-12-13T16:25:35.375Z,0
2017-12-13T16:26:45.690Z,0
2017-12-13T16:27:55.959Z,0
2017-12-13T16:29:06.202Z,0
2017-12-13T16:30:17.245Z,0
2017-12-13T16:31:27.825Z,0
2017-12-13T16:32:38.093Z,0
2017-12-13T16:33:48.414Z,0
2017-12-13T16:34:58.701Z,0
2017-12-13T16:36:08.968Z,0
2017-12-13T16:37:18.950Z,0
2017-12-13T16:38:29.213Z,0
2017-12-13T16:39:39.477Z,0
2017-12-13T16:40:49.464Z,0
2017-12-13T16:41:59.781Z,0
2017-12-13T16:43:09.766Z,0
2017-12-13T16:44:20.077Z,0
2017-12-13T16:45:30.344Z,0
2017-12-13T16:46:40.606Z,0
2017-12-13T16:47:50.878Z,0
2017-12-13T16:49:01.236Z,0
2017-12-13T16:50:11.386Z,0
2017-12-13T16:51:21.696Z,0
2017-12-13T16:52:31.960Z,0
2017-12-13T16:53:42.243Z,0
2017-12-13T16:54:53.146Z,0
2017-12-13T16:56:03.403Z,0
2017-12-13T16:57:13.721Z,0
2017-12-13T16:58:24.190Z,0
2017-12-13T16:59:34.459Z,0
2017-12-13T17:00:44.440Z,0
2017-12-13T17:01:54.710Z,0
2017-12-13T17:03:04.981Z,0
2017-12-13T17:04:15.019Z,0
2017-12-13T17:05:25.284Z,0